createdAt,value
2018-02-27T00:00:33.683Z,-3.89
2018-02-27T00:03:00.274Z,-3.97
2018-02-27T00:05:26.826Z,-4.04
2018-02-27T00:07:53.408Z,-4.15
2018-02-27T00:10:19.969Z,-4.22
2018-02-27T00:12:46.583Z,-4.30
2018-02-27T00:15:13.186Z,-4.24
2018-02-27T00:17:40.574Z,-4.38
2018-02-27T00:20:07.857Z,-4.12
2018-02-27T00:22:34.536Z,-4.10
2018-02-27T00:25:01.094Z,-4.32
2018-02-27T00:27:27.695Z,-4.35
2018-02-27T00:29:55.026Z,-4.38
2018-02-27T00:32:21.594Z,-4.33
2018-02-27T00:34:48.904Z,-4.44
2018-02-27T00:37:15.525Z,-4.31
2018-02-27T00:39:42.075Z,-4.50
2018-02-27T00:42:09.374Z,-4.46
2018-02-27T00:44:35.939Z,-4.51
2018-02-27T00:47:02.534Z,-4.41
2018-02-27T00:49:29.844Z,-4.48
2018-02-27T00:52:00.161Z,-4.55
2018-02-27T00:54:26.691Z,-4.74
2018-02-27T00:56:54.043Z,-4.55
2018-02-27T00:59:21.343Z,-4.61
2018-02-27T01:04:15.038Z,-4.70
2018-02-27T01:06:41.617Z,-4.43
2018-02-27T01:09:08.152Z,-4.72
2018-02-27T01:11:34.758Z,-4.76
2018-02-27T01:14:01.332Z,-4.84
2018-02-27T01:16:27.931Z,-4.89
2018-02-27T01:18:54.492Z,-4.89
2018-02-27T01:21:27.101Z,-4.54
2018-02-27T01:23:54.373Z,-4.94
2018-02-27T01:26:21.666Z,-4.89
2018-02-27T01:28:48.250Z,-4.88
2018-02-27T01:31:14.917Z,-5.00
2018-02-27T01:33:41.482Z,-5.02
2018-02-27T01:36:08.757Z,-5.09
2018-02-27T01:38:36.063Z,-4.99
2018-02-27T01:41:03.184Z,-5.08
2018-02-27T01:43:30.493Z,-5.13
2018-02-27T01:45:57.068Z,-5.08
2018-02-27T01:48:23.654Z,-5.11
2018-02-27T01:51:09.157Z,-5.02
2018-02-27T01:53:35.731Z,-5.21
2018-02-27T01:56:02.255Z,-5.18
2018-02-27T01:58:28.827Z,-5.11
2018-02-27T02:00:55.356Z,-5.26
2018-02-27T02:03:21.925Z,-5.11
2018-02-27T02:05:48.484Z,-5.31
2018-02-27T02:08:15.048Z,-5.37
2018-02-27T02:10:42.066Z,-5.31
2018-02-27T02:13:08.607Z,-5.31
2018-02-27T02:15:35.136Z,-5.14
2018-02-27T02:18:02.451Z,-5.26
2018-02-27T02:20:29.029Z,-5.10
2018-02-27T02:22:56.341Z,-5.33
2018-02-27T02:25:22.921Z,-5.35
2018-02-27T02:27:49.524Z,-5.37
2018-02-27T02:30:16.098Z,-5.49
2018-02-27T02:32:43.177Z,-5.53
2018-02-27T02:35:09.732Z,-5.66
2018-02-27T02:37:36.268Z,-5.56
2018-02-27T02:40:02.931Z,-5.61
2018-02-27T02:42:29.481Z,-5.40
2018-02-27T02:44:56.030Z,-5.57
2018-02-27T02:47:22.564Z,-5.57
2018-02-27T02:49:49.157Z,-5.19
2018-02-27T02:52:16.447Z,-5.56
2018-02-27T02:54:42.994Z,-5.72
2018-02-27T02:57:09.586Z,-5.66
2018-02-27T02:59:36.153Z,-5.71
2018-02-27T03:02:02.765Z,-5.69
2018-02-27T03:04:29.334Z,-5.70
2018-02-27T03:06:55.899Z,-5.50
2018-02-27T03:09:22.469Z,-5.89
2018-02-27T03:11:49.774Z,-5.90
2018-02-27T03:14:16.470Z,-5.90
2018-02-27T03:16:43.023Z,-5.81
2018-02-27T03:19:10.322Z,-5.96
2018-02-27T03:21:36.868Z,-6.03
2018-02-27T03:24:03.428Z,-6.08
2018-02-27T03:26:29.960Z,-6.13
2018-02-27T03:28:56.516Z,-6.00
2018-02-27T03:31:23.097Z,-6.07
2018-02-27T03:33:49.655Z,-6.10
2018-02-27T03:36:16.216Z,-6.06
2018-02-27T03:38:42.770Z,-6.16
2018-02-27T03:41:09.312Z,-6.37
2018-02-27T03:43:35.880Z,-6.32
2018-02-27T03:46:03.183Z,-6.34
2018-02-27T03:48:29.773Z,-6.31
2018-02-27T03:50:56.329Z,-6.22
2018-02-27T03:53:22.895Z,-6.12
2018-02-27T03:55:50.186Z,-6.13
2018-02-27T03:58:16.746Z,-6.22
2018-02-27T04:00:43.286Z,-6.10
2018-02-27T04:03:09.820Z,-6.28
2018-02-27T04:05:36.416Z,-6.23
2018-02-27T04:08:03.237Z,-6.27
2018-02-27T04:10:29.794Z,-5.90
2018-02-27T04:12:56.331Z,-6.21
2018-02-27T04:15:22.863Z,-6.32
2018-02-27T04:17:49.444Z,-6.32
2018-02-27T04:20:15.983Z,-6.36
2018-02-27T04:22:42.532Z,-6.35
2018-02-27T04:25:09.100Z,-6.36
2018-02-27T04:27:35.622Z,-6.33
2018-02-27T04:30:02.261Z,-6.29
2018-02-27T04:32:28.825Z,-6.25
2018-02-27T04:34:55.362Z,-6.33
2018-02-27T04:37:21.922Z,-6.46
2018-02-27T04:39:48.494Z,-6.49
2018-02-27T04:42:15.121Z,-6.31
2018-02-27T04:44:41.781Z,-6.26
2018-02-27T04:47:08.317Z,-6.29
2018-02-27T04:49:34.875Z,-6.43
2018-02-27T04:52:01.419Z,-6.60
2018-02-27T04:54:27.999Z,-6.69
2018-02-27T04:56:54.558Z,-6.70
2018-02-27T04:59:21.092Z,-6.71
2018-02-27T05:01:47.631Z,-6.77
2018-02-27T05:04:14.213Z,-6.82
2018-02-27T05:06:41.553Z,-6.86
2018-02-27T05:09:08.100Z,-6.73
2018-02-27T05:11:34.639Z,-6.72
2018-02-27T05:14:01.189Z,-6.86
2018-02-27T05:16:27.720Z,-6.76
2018-02-27T05:18:54.319Z,-6.77
2018-02-27T05:21:20.882Z,-6.84
2018-02-27T05:23:47.441Z,-6.58
2018-02-27T05:26:13.977Z,-6.62
2018-02-27T05:28:40.538Z,-6.76
2018-02-27T05:31:07.147Z,-6.75
2018-02-27T05:33:33.708Z,-6.81
2018-02-27T05:36:01.003Z,-6.79
2018-02-27T05:38:27.551Z,-6.91
2018-02-27T05:40:54.086Z,-6.82
2018-02-27T05:43:21.405Z,-6.91
2018-02-27T05:45:47.952Z,-6.85
2018-02-27T05:48:14.511Z,-7.10
2018-02-27T05:50:41.055Z,-7.25
2018-02-27T05:53:07.615Z,-7.12
2018-02-27T05:55:34.185Z,-7.16
2018-02-27T05:58:00.720Z,-7.11
2018-02-27T06:00:27.243Z,-7.05
2018-02-27T06:02:53.796Z,-7.11
2018-02-27T06:05:21.211Z,-7.20
2018-02-27T06:07:47.833Z,-7.17
2018-02-27T06:10:14.360Z,-7.16
2018-02-27T06:12:40.914Z,-7.16
2018-02-27T06:15:07.463Z,-7.31
2018-02-27T06:17:34.020Z,-7.29
2018-02-27T06:20:01.702Z,-7.34
2018-02-27T06:22:28.257Z,-7.21
2018-02-27T06:24:54.837Z,-7.29
2018-02-27T06:27:21.391Z,-7.26
2018-02-27T06:29:47.980Z,-7.16
2018-02-27T06:32:14.522Z,-7.31
2018-02-27T06:34:41.069Z,-7.15
2018-02-27T06:37:07.590Z,-6.20
2018-02-27T06:39:34.135Z,-6.83
2018-02-27T06:42:00.709Z,-7.01
2018-02-27T06:44:27.590Z,-7.19
2018-02-27T06:46:54.200Z,-7.27
2018-02-27T06:49:20.798Z,-7.28
2018-02-27T06:51:48.410Z,-7.16
2018-02-27T06:54:14.976Z,-7.21
2018-02-27T06:56:41.508Z,-7.13
2018-02-27T06:59:08.052Z,-7.16
2018-02-27T07:01:34.637Z,-7.01
2018-02-27T07:04:01.187Z,-6.95
2018-02-27T07:06:27.764Z,-7.10
2018-02-27T07:08:55.050Z,-7.10
2018-02-27T07:11:21.601Z,-7.00
2018-02-27T07:13:48.181Z,-6.97
2018-02-27T07:16:14.727Z,-6.88
2018-02-27T07:18:41.289Z,-6.90
2018-02-27T07:21:08.344Z,-6.78
2018-02-27T07:23:34.924Z,-6.70
2018-02-27T07:26:01.524Z,-6.50
2018-02-27T07:28:28.082Z,-6.60
2018-02-27T07:30:54.651Z,-6.59
2018-02-27T07:33:21.214Z,-6.50
2018-02-27T07:35:47.752Z,-6.48
2018-02-27T07:38:14.354Z,-6.29
2018-02-27T07:40:40.927Z,-6.37
2018-02-27T07:43:07.511Z,-6.32
2018-02-27T07:45:34.083Z,-6.13
2018-02-27T07:48:01.382Z,-6.25
2018-02-27T07:50:27.932Z,-6.06
2018-02-27T07:52:54.544Z,-6.14
2018-02-27T07:55:21.198Z,-5.95
2018-02-27T07:57:48.140Z,-5.51
2018-02-27T08:00:14.786Z,-5.71
2018-02-27T08:02:41.385Z,-5.90
2018-02-27T08:05:08.048Z,-5.71
2018-02-27T08:07:34.742Z,-5.88
2018-02-27T08:10:02.476Z,-5.84
2018-02-27T08:12:41.224Z,-5.76
2018-02-27T08:15:08.639Z,-5.53
2018-02-27T08:17:35.269Z,-5.50
2018-02-27T08:20:01.886Z,-5.47
2018-02-27T08:22:28.454Z,-5.00
2018-02-27T08:24:55.032Z,-5.51
2018-02-27T08:27:23.427Z,-5.18
2018-02-27T08:29:50.533Z,-5.35
2018-02-27T08:32:17.177Z,-5.33
2018-02-27T08:34:43.814Z,-5.28
2018-02-27T08:37:10.395Z,-5.13
2018-02-27T08:39:36.936Z,-5.17
2018-02-27T08:42:03.501Z,-5.06
2018-02-27T08:44:30.068Z,-5.14
2018-02-27T08:46:56.624Z,-4.89
2018-02-27T08:49:23.984Z,-5.00
2018-02-27T08:51:50.535Z,-4.75
2018-02-27T08:54:17.894Z,-4.79
2018-02-27T08:56:45.313Z,-4.30
2018-02-27T08:59:11.877Z,-4.60
2018-02-27T09:01:38.508Z,-4.75
2018-02-27T09:04:05.062Z,-4.54
2018-02-27T09:06:31.669Z,-4.48
2018-02-27T09:08:58.959Z,-4.67
2018-02-27T09:11:25.517Z,-4.63
2018-02-27T09:13:52.118Z,-4.40
2018-02-27T09:16:18.680Z,-4.50
2018-02-27T09:18:45.224Z,-4.46
2018-02-27T09:21:11.968Z,-4.31
2018-02-27T09:23:39.300Z,-4.35
2018-02-27T09:26:05.916Z,-4.31
2018-02-27T09:28:32.488Z,-4.23
2018-02-27T09:30:59.033Z,-4.20
2018-02-27T09:33:25.709Z,-4.31
2018-02-27T09:35:52.277Z,-4.10
2018-02-27T09:38:19.029Z,-3.79
2018-02-27T09:40:45.468Z,-3.57
2018-02-27T09:43:12.036Z,-3.87
2018-02-27T09:45:38.578Z,-3.82
2018-02-27T09:48:05.146Z,-3.33
2018-02-27T09:50:32.455Z,-3.52
2018-02-27T09:52:59.039Z,-3.55
2018-02-27T09:55:25.646Z,-3.64
2018-02-27T09:57:52.250Z,-3.45
2018-02-27T10:00:18.775Z,-3.29
2018-02-27T10:02:45.604Z,-3.25
2018-02-27T10:05:12.239Z,-3.03
2018-02-27T10:07:38.866Z,-3.33
2018-02-27T10:10:05.449Z,-3.06
2018-02-27T10:12:32.008Z,-2.97
2018-02-27T10:14:58.601Z,-3.09
2018-02-27T10:17:25.247Z,-2.88
2018-02-27T10:19:51.853Z,-2.75
2018-02-27T10:22:18.409Z,-2.81
2018-02-27T10:24:44.953Z,-2.69
2018-02-27T10:27:11.540Z,-2.83
2018-02-27T10:29:38.292Z,-2.80
2018-02-27T10:32:05.039Z,-2.64
2018-02-27T10:34:31.663Z,-2.58
2018-02-27T10:36:58.267Z,-2.71
2018-02-27T10:39:25.030Z,-2.49
2018-02-27T10:41:52.352Z,-2.72
2018-02-27T10:44:18.959Z,-2.34
2018-02-27T10:46:45.549Z,-2.15
2018-02-27T10:49:12.164Z,-1.81
2018-02-27T10:51:38.854Z,-1.73
2018-02-27T10:54:05.719Z,-2.11
2018-02-27T10:56:32.733Z,-1.72
2018-02-27T10:58:59.314Z,-1.65
2018-02-27T11:01:25.953Z,-2.01
2018-02-27T11:03:52.533Z,-1.80
2018-02-27T11:06:19.176Z,-1.77
2018-02-27T11:08:45.813Z,-1.55
2018-02-27T11:11:12.448Z,-1.97
2018-02-27T11:13:40.124Z,-1.71
2018-02-27T11:16:06.727Z,-1.57
2018-02-27T11:18:34.150Z,-1.30
2018-02-27T11:21:01.322Z,-1.50
2018-02-27T11:23:27.926Z,-1.57
2018-02-27T11:26:00.083Z,-1.38
2018-02-27T11:28:26.659Z,-1.66
2018-02-27T11:30:53.259Z,-1.43
2018-02-27T11:33:21.029Z,-0.64
2018-02-27T11:35:47.961Z,-1.50
2018-02-27T11:38:14.566Z,-1.16
2018-02-27T11:40:41.266Z,-1.50
2018-02-27T11:43:08.162Z,-1.48
2018-02-27T11:45:34.803Z,-1.02
2018-02-27T11:48:01.447Z,-0.80
2018-02-27T11:50:28.106Z,-0.56
2018-02-27T11:52:55.460Z,-1.11
2018-02-27T11:55:22.032Z,-1.31
2018-02-27T11:57:48.654Z,-0.86
2018-02-27T12:00:15.323Z,-0.66
2018-02-27T12:02:42.723Z,-1.25
2018-02-27T12:05:11.681Z,-0.42
2018-02-27T12:07:38.384Z,-0.46
2018-02-27T12:10:08.220Z,-0.93
2018-02-27T12:12:34.875Z,-0.80
2018-02-27T12:15:01.577Z,-0.40
2018-02-27T12:17:28.153Z,-0.48
2018-02-27T12:19:54.764Z,-0.97
2018-02-27T12:22:21.379Z,-0.69
2018-02-27T12:24:48.000Z,-0.45
2018-02-27T12:27:18.672Z,-0.35
2018-02-27T12:29:45.257Z,-0.35
2018-02-27T12:32:11.857Z,-0.38
2018-02-27T12:34:38.409Z,-0.64
2018-02-27T12:37:04.992Z,-0.98
2018-02-27T12:39:31.638Z,-0.97
2018-02-27T12:41:58.218Z,-0.61
2018-02-27T12:44:24.855Z,-0.71
2018-02-27T12:46:51.499Z,-0.60
2018-02-27T12:49:18.184Z,-0.90
2018-02-27T12:51:45.893Z,-0.87
2018-02-27T12:54:12.561Z,-0.36
2018-02-27T12:56:39.150Z,-0.24
2018-02-27T12:59:05.754Z,-0.19
2018-02-27T13:01:32.375Z,0.40
2018-02-27T13:03:58.991Z,0.06
2018-02-27T13:06:25.574Z,-0.11
2018-02-27T13:08:53.017Z,-0.67
2018-02-27T13:11:21.451Z,-0.15
2018-02-27T13:13:49.389Z,-0.31
2018-02-27T13:16:17.261Z,-0.15
2018-02-27T13:18:45.492Z,-0.14
2018-02-27T13:21:13.111Z,-0.40
2018-02-27T13:23:40.662Z,-0.34
2018-02-27T13:26:09.729Z,-0.01
2018-02-27T13:28:39.260Z,-0.25
2018-02-27T13:31:06.792Z,-0.67
2018-02-27T13:33:34.275Z,-0.92
2018-02-27T13:36:02.919Z,-1.05
2018-02-27T13:38:30.533Z,-0.97
2018-02-27T13:40:58.012Z,-1.00
2018-02-27T13:43:26.153Z,-0.88
2018-02-27T13:45:54.057Z,-0.85
2018-02-27T13:48:21.609Z,-0.72
2018-02-27T13:50:49.195Z,-0.80
2018-02-27T13:53:17.439Z,-0.99
2018-02-27T13:55:44.971Z,-0.58
2018-02-27T13:58:12.855Z,-0.77
2018-02-27T14:00:40.291Z,-1.02
2018-02-27T14:03:07.802Z,-0.84
2018-02-27T14:05:36.123Z,-0.52
2018-02-27T14:08:03.751Z,-0.99
2018-02-27T14:10:31.467Z,-0.79
2018-02-27T14:12:58.920Z,-0.58
2018-02-27T14:15:26.562Z,-0.38
2018-02-27T14:17:54.023Z,-0.71
2018-02-27T14:20:22.134Z,-0.78
2018-02-27T14:22:49.958Z,-0.77
2018-02-27T14:25:18.115Z,-0.52
2018-02-27T14:27:45.748Z,0.01
2018-02-27T14:30:13.635Z,-0.34
2018-02-27T14:32:41.646Z,-0.40
2018-02-27T14:35:08.899Z,-0.59
2018-02-27T14:37:43.400Z,-0.41
2018-02-27T14:42:48.035Z,-0.29
2018-02-27T14:45:14.694Z,-0.22
2018-02-27T14:47:41.416Z,0.15
2018-02-27T14:50:08.061Z,0.22
2018-02-27T14:52:34.674Z,0.25
2018-02-27T14:55:01.320Z,-0.24
2018-02-27T14:57:27.970Z,-0.32
2018-02-27T14:59:55.411Z,-0.23
2018-02-27T15:02:22.073Z,-0.68
2018-02-27T15:04:48.703Z,-0.76
2018-02-27T15:07:15.343Z,-0.95
2018-02-27T15:09:42.131Z,-0.78
2018-02-27T15:12:08.943Z,-0.36
2018-02-27T15:14:35.681Z,0.16
2018-02-27T15:17:02.729Z,-0.33
2018-02-27T15:19:29.852Z,-0.17
2018-02-27T15:21:56.612Z,-0.13
2018-02-27T15:24:24.298Z,-0.34
2018-02-27T15:26:51.627Z,-0.22
2018-02-27T15:29:18.604Z,0.01
2018-02-27T15:31:45.344Z,0.10
2018-02-27T15:34:12.098Z,0.52
2018-02-27T15:36:38.721Z,0.69
2018-02-27T15:39:05.731Z,0.42
2018-02-27T15:41:32.639Z,0.22
2018-02-27T15:43:59.274Z,0.13
2018-02-27T15:46:26.122Z,-0.17
2018-02-27T15:48:52.791Z,0.21
2018-02-27T15:51:19.440Z,-0.21
2018-02-27T15:53:46.126Z,-0.12
2018-02-27T15:56:13.179Z,-0.11
2018-02-27T15:58:39.964Z,-0.70
2018-02-27T16:01:06.743Z,-0.68
2018-02-27T16:03:33.359Z,-0.84
2018-02-27T16:06:00.222Z,-0.95
2018-02-27T16:08:26.913Z,-1.12
2018-02-27T16:10:53.629Z,-0.97
2018-02-27T16:13:20.406Z,-1.15
2018-02-27T16:15:47.399Z,-1.25
2018-02-27T16:18:14.002Z,-1.29
2018-02-27T16:20:40.639Z,-1.42
2018-02-27T16:23:07.322Z,-1.16
2018-02-27T16:25:33.972Z,-1.45
2018-02-27T16:28:01.462Z,-1.20
2018-02-27T16:30:28.143Z,-1.40
2018-02-27T16:32:55.011Z,-1.28
2018-02-27T16:35:21.710Z,-1.41
2018-02-27T16:37:48.411Z,-1.61
2018-02-27T16:40:15.734Z,-1.61
2018-02-27T16:42:42.376Z,-1.71
2018-02-27T16:45:09.080Z,-1.63
2018-02-27T16:47:36.017Z,-1.53
2018-02-27T16:50:02.673Z,-1.73
2018-02-27T16:52:29.410Z,-1.82
2018-02-27T16:54:56.010Z,-1.88
2018-02-27T16:57:22.751Z,-1.42
2018-02-27T16:59:49.414Z,-1.71
2018-02-27T17:02:16.300Z,-1.57
2018-02-27T17:04:42.930Z,-1.77
2018-02-27T17:07:09.655Z,-1.88
2018-02-27T17:09:36.537Z,-1.76
2018-02-27T17:12:03.270Z,-1.88
2018-02-27T17:14:30.362Z,-1.96
2018-02-27T17:16:57.025Z,-1.97
2018-02-27T17:19:24.398Z,-1.55
2018-02-27T17:21:51.073Z,-2.03
2018-02-27T17:24:17.845Z,-2.09
2018-02-27T17:26:44.601Z,-2.18
2018-02-27T17:29:11.358Z,-2.25
2018-02-27T17:31:38.477Z,-2.26
2018-02-27T17:34:05.979Z,-2.41
2018-02-27T17:36:32.626Z,-2.34
2018-02-27T17:38:59.206Z,-2.28
2018-02-27T17:41:26.013Z,-2.21
2018-02-27T17:43:52.608Z,-2.31
2018-02-27T17:46:19.263Z,-2.22
2018-02-27T17:48:45.874Z,-2.50
2018-02-27T17:51:12.433Z,-2.38
2018-02-27T17:53:39.013Z,-2.49
2018-02-27T17:56:05.613Z,-2.58
2018-02-27T17:58:32.209Z,-2.73
2018-02-27T18:00:58.898Z,-2.59
2018-02-27T18:03:25.584Z,-2.74
2018-02-27T18:05:52.375Z,-2.55
2018-02-27T18:08:19.709Z,-2.59
2018-02-27T18:10:46.306Z,-2.78
2018-02-27T18:13:12.915Z,-2.69
2018-02-27T18:15:39.528Z,-2.59
2018-02-27T18:18:06.181Z,-2.81
2018-02-27T18:20:32.779Z,-2.69
2018-02-27T18:22:59.447Z,-2.45
2018-02-27T18:25:26.084Z,-2.44
2018-02-27T18:27:56.254Z,-2.66
2018-02-27T18:30:22.843Z,-2.94
2018-02-27T18:32:49.663Z,-2.78
2018-02-27T18:35:16.404Z,-2.81
2018-02-27T18:37:43.769Z,-2.76
2018-02-27T18:40:10.403Z,-3.09
2018-02-27T18:42:37.039Z,-2.97
2018-02-27T18:45:03.673Z,-2.79
2018-02-27T18:47:30.799Z,-2.51
2018-02-27T18:49:58.590Z,-2.51
2018-02-27T18:52:25.233Z,-2.64
2018-02-27T18:54:51.840Z,-2.46
2018-02-27T18:57:18.479Z,-2.61
2018-02-27T18:59:45.063Z,-2.78
2018-02-27T19:02:11.740Z,-2.67
2018-02-27T19:04:38.877Z,-2.82
2018-02-27T19:07:05.725Z,-2.97
2018-02-27T19:09:32.310Z,-3.09
2018-02-27T19:11:59.709Z,-3.15
2018-02-27T19:14:28.114Z,-3.14
2018-02-27T19:16:54.732Z,-3.23
2018-02-27T19:19:21.361Z,-3.26
2018-02-27T19:21:48.154Z,-3.17
2018-02-27T19:24:14.856Z,-3.22
2018-02-27T19:26:41.599Z,-3.22
2018-02-27T19:29:08.430Z,-3.19
2018-02-27T19:31:35.271Z,-2.96
2018-02-27T19:34:02.070Z,-3.16
2018-02-27T19:36:46.934Z,-2.76
2018-02-27T19:39:14.058Z,-3.16
2018-02-27T19:41:41.286Z,-2.99
2018-02-27T19:44:18.143Z,-2.86
2018-02-27T19:50:05.609Z,-2.97
2018-02-27T19:52:33.872Z,-3.02
2018-02-27T19:55:01.379Z,-2.92
2018-02-27T19:57:30.259Z,-3.10
2018-02-27T19:59:57.350Z,-3.14
2018-02-27T20:02:25.222Z,-3.16
2018-02-27T20:04:52.979Z,-3.19
2018-02-27T20:07:21.176Z,-3.14
2018-02-27T20:09:49.660Z,-2.67
2018-02-27T20:12:17.861Z,-3.14
2018-02-27T20:14:46.185Z,-3.28
2018-02-27T20:17:15.183Z,-3.29
2018-02-27T20:19:43.107Z,-3.29
2018-02-27T20:22:10.834Z,-3.36
2018-02-27T20:24:38.549Z,-3.30
2018-02-27T20:27:05.849Z,-2.70
2018-02-27T20:29:33.755Z,-2.26
2018-02-27T20:32:07.380Z,-1.41
2018-02-27T20:34:55.884Z,-2.24
2018-02-27T20:40:34.049Z,-2.32
2018-02-27T20:43:01.642Z,-3.05
2018-02-27T20:45:29.525Z,-2.97
2018-02-27T20:47:57.657Z,-3.00
2018-02-27T20:56:48.079Z,-2.60
2018-02-27T20:59:16.334Z,-2.86
2018-02-27T21:01:44.602Z,-3.15
2018-02-27T21:07:34.775Z,-3.24
2018-02-27T21:10:02.338Z,-3.14
2018-02-27T21:12:33.758Z,-2.99
2018-02-27T21:18:11.054Z,-3.13
2018-02-27T21:20:38.654Z,-2.96
2018-02-27T21:23:06.304Z,-2.89
2018-02-27T21:25:33.958Z,-3.43
2018-02-27T21:28:01.256Z,-2.68
2018-02-27T21:33:38.245Z,-2.80
2018-02-27T21:36:05.254Z,-2.35
2018-02-27T21:38:32.227Z,-2.57
2018-02-27T21:40:59.175Z,-3.59
2018-02-27T21:43:26.114Z,-2.82
2018-02-27T21:46:22.979Z,-3.30
2018-02-27T21:48:50.026Z,-3.30
2018-02-27T21:51:17.324Z,-3.82
2018-02-27T21:53:45.415Z,-3.98
2018-02-27T21:56:12.648Z,-3.59
2018-02-27T21:58:39.642Z,-3.51
2018-02-27T22:01:06.807Z,-3.78
2018-02-27T22:03:34.776Z,-3.79
2018-02-27T22:06:09.721Z,-3.66
2018-02-27T22:08:36.435Z,-3.58
2018-02-27T22:11:03.040Z,-3.58
2018-02-27T22:13:30.016Z,-3.86
2018-02-27T22:15:56.647Z,-4.08
2018-02-27T22:18:24.956Z,-3.85
2018-02-27T22:20:52.177Z,-3.63
2018-02-27T22:23:18.881Z,-3.57
2018-02-27T22:25:46.201Z,-3.62
2018-02-27T22:28:13.595Z,-3.84
2018-02-27T22:30:42.122Z,-4.02
2018-02-27T22:33:09.486Z,-4.11
2018-02-27T22:35:36.972Z,-3.96
2018-02-27T22:38:05.029Z,-3.99
2018-02-27T22:40:32.428Z,-3.26
2018-02-27T22:42:59.108Z,-3.87
2018-02-27T22:45:25.797Z,-3.78
2018-02-27T22:47:52.501Z,-4.13
2018-02-27T22:50:27.440Z,-3.12
2018-02-27T22:52:55.420Z,-3.50
2018-02-27T22:55:29.201Z,-3.98
2018-02-27T22:57:56.875Z,-3.25
2018-02-27T23:00:36.357Z,-1.76
2018-02-27T23:03:04.102Z,-1.39
2018-02-27T23:05:31.725Z,-1.40
2018-02-27T23:07:59.314Z,-2.30
2018-02-27T23:10:28.579Z,-2.03
2018-02-27T23:12:56.266Z,-1.97
2018-02-27T23:15:24.950Z,-3.40
2018-02-27T23:17:52.603Z,-3.13
2018-02-27T23:20:20.263Z,-2.79
2018-02-27T23:22:47.837Z,-3.60
2018-02-27T23:25:30.977Z,-3.75
2018-02-27T23:28:05.312Z,-3.57
2018-02-27T23:30:33.914Z,-3.80
2018-02-27T23:33:05.381Z,-3.88
2018-02-27T23:35:33.647Z,-3.88
2018-02-27T23:38:01.988Z,-3.91
2018-02-27T23:40:29.557Z,-3.64
2018-02-27T23:42:57.230Z,-3.47
2018-02-27T23:45:26.552Z,-3.70
2018-02-27T23:47:55.436Z,-3.41
2018-02-27T23:50:22.943Z,-3.68
2018-02-27T23:52:50.395Z,-3.78
2018-02-27T23:55:17.889Z,-3.39
2018-02-27T23:57:46.101Z,-3.58
